Time;durP1;ratioP1;P1;durP2;ratioP2;P2;SDS_P1;SDS_P2;PMS_P1;PMS_P2;Temp;Humidity;BMP_temperature;BMP_pressure;BME280_temperature;BME280_humidity;BME280_pressure;Samples;Min_cycle;Max_cycle;Signal;HPM_P1;HPM_P2
2023/01/21 00:00:51;;;;;;;43.85;21.13;;;;;;;-2.01;100.00;96428.41;5037133;28;20040;-94
2023/01/21 00:03:18;;;;;;;40.25;20.05;;;;;;;-2.06;100.00;96436.31;5034571;28;20214;-92
2023/01/21 00:05:46;;;;;;;43.50;19.52;;;;;;;-1.97;100.00;96429.56;5039433;28;20048;-91
2023/01/21 00:08:13;;;;;;;40.30;19.52;;;;;;;-1.83;100.00;96435.44;5034276;28;20050;-93
2023/01/21 00:10:39;;;;;;;42.88;19.10;;;;;;;-1.74;100.00;96435.88;5053665;28;20048;-92
2023/01/21 00:13:06;;;;;;;45.90;20.10;;;;;;;-1.82;100.00;96436.25;5017681;28;20041;-92
2023/01/21 00:15:33;;;;;;;42.33;20.08;;;;;;;-1.82;100.00;96442.41;5019534;28;20052;-88
2023/01/21 00:18:00;;;;;;;48.42;21.58;;;;;;;-1.90;100.00;96435.56;5053031;28;20045;-93
2023/01/21 00:20:27;;;;;;;44.50;20.88;;;;;;;-1.85;100.00;96432.19;5038981;28;20051;-93
2023/01/21 00:22:55;;;;;;;41.50;19.67;;;;;;;-1.77;100.00;96436.38;5049414;28;20049;-92
2023/01/21 00:25:23;;;;;;;45.75;19.75;;;;;;;-1.77;100.00;96433.69;5046767;28;20041;-92
2023/01/21 00:27:50;;;;;;;42.22;19.00;;;;;;;-1.78;99.92;96437.38;5039329;28;20037;-90
2023/01/21 00:30:17;;;;;;;40.13;20.00;;;;;;;-1.73;99.80;96429.47;5050975;28;20049;-91
2023/01/21 00:32:43;;;;;;;37.20;19.40;;;;;;;-1.88;99.46;96438.84;5051317;28;20049;-92
2023/01/21 00:35:10;;;;;;;40.03;19.60;;;;;;;-1.88;99.81;96433.50;5055415;28;20049;-93
2023/01/21 00:37:37;;;;;;;42.42;19.33;;;;;;;-1.87;99.78;96432.44;5051533;28;20704;-93
2023/01/21 00:40:06;;;;;;;43.35;19.88;;;;;;;-1.89;100.00;96436.38;5048337;28;20052;-94
2023/01/21 00:42:33;;;;;;;39.80;19.00;;;;;;;-1.80;100.00;96434.97;5024591;28;20718;-94
2023/01/21 00:45:00;;;;;;;44.35;20.13;;;;;;;-1.86;99.89;96441.25;5056550;28;20045;-91
2023/01/21 00:47:26;;;;;;;39.47;19.50;;;;;;;-1.89;99.97;96442.53;5043229;28;20537;-93
2023/01/21 00:49:53;;;;;;;42.35;19.55;;;;;;;-1.88;100.00;96449.50;5044722;28;20101;-93
2023/01/21 00:52:20;;;;;;;39.63;18.52;;;;;;;-1.77;99.69;96442.50;5044191;28;20124;-92
2023/01/21 00:54:47;;;;;;;38.10;18.42;;;;;;;-1.71;99.33;96448.75;5045125;28;20626;-93
2023/01/21 00:57:15;;;;;;;40.70;18.92;;;;;;;-1.76;99.06;96446.78;5035737;28;20133;-91
2023/01/21 00:59:42;;;;;;;37.85;18.98;;;;;;;-1.83;99.14;96446.09;5047285;28;20096;-91
2023/01/21 01:02:10;;;;;;;37.70;18.90;;;;;;;-1.81;99.38;96449.38;5038028;28;20042;-91
2023/01/21 01:04:37;;;;;;;36.25;18.15;;;;;;;-1.81;99.18;96453.91;5049781;28;20493;-93
2023/01/21 01:07:05;;;;;;;38.97;18.30;;;;;;;-1.86;99.64;96451.94;5047461;28;20041;-92
2023/01/21 01:09:32;;;;;;;34.80;17.50;;;;;;;-1.80;99.52;96455.50;5047415;28;20055;-92
2023/01/21 01:11:58;;;;;;;36.38;18.63;;;;;;;-1.80;99.26;96458.19;5047705;28;20124;-92
2023/01/21 01:14:27;;;;;;;35.38;17.25;;;;;;;-1.68;98.72;96464.28;5039286;28;20037;-91
2023/01/21 01:16:53;;;;;;;34.10;16.45;;;;;;;-1.64;98.31;96457.44;5048231;28;20221;-91
2023/01/21 01:19:20;;;;;;;36.42;17.08;;;;;;;-1.59;98.07;96457.53;5050842;28;20129;-92
2023/01/21 01:21:47;;;;;;;32.25;16.13;;;;;;;-1.53;97.61;96461.91;5042444;28;20043;-92
2023/01/21 01:24:14;;;;;;;36.70;16.52;;;;;;;-1.55;97.52;96457.88;5046263;28;20041;-91
2023/01/21 01:26:41;;;;;;;37.15;17.83;;;;;;;-1.61;97.47;96465.78;5049310;28;20150;-92
2023/01/21 01:29:12;;;;;;;31.50;16.65;;;;;;;-1.71;97.49;96459.44;5035105;28;20105;-90
2023/01/21 01:31:42;;;;;;;35.47;16.70;;;;;;;-1.75;98.52;96464.44;5035306;28;20045;-94
2023/01/21 01:34:10;;;;;;;33.55;16.27;;;;;;;-1.75;98.58;96463.63;5053187;28;20057;-93
2023/01/21 01:36:36;;;;;;;27.05;15.45;;;;;;;-1.66;98.38;96463.00;5050310;28;20124;-93
2023/01/21 01:39:03;;;;;;;30.67;16.20;;;;;;;-1.71;98.07;96459.44;5042863;28;20045;-92
2023/01/21 01:41:34;;;;;;;35.38;16.08;;;;;;;-1.77;97.99;96457.72;5044289;28;20088;-89
2023/01/21 01:44:03;;;;;;;32.25;16.15;;;;;;;-1.79;98.24;96463.28;5044168;28;20044;-92
2023/01/21 01:46:31;;;;;;;32.25;14.82;;;;;;;-1.77;98.00;96466.53;5035694;28;20179;-91
2023/01/21 01:49:09;;;;;;;35.55;16.40;;;;;;;-1.84;97.81;96466.66;5044905;28;20081;-93
2023/01/21 01:51:46;;;;;;;33.28;15.82;;;;;;;-1.95;98.17;96470.16;5037638;28;20121;-92
2023/01/21 01:54:16;;;;;;;31.70;15.82;;;;;;;-1.89;98.51;96466.53;5052975;28;20047;-92
2023/01/21 01:56:49;;;;;;;32.72;15.18;;;;;;;-1.94;99.01;96466.44;5043377;28;20481;-92
2023/01/21 01:59:16;;;;;;;;;;;;;;;-1.94;99.08;96465.63;5049330;28;20049;-92
2023/01/21 02:01:45;;;;;;;34.25;15.60;;;;;;;-1.94;99.03;96471.78;5056314;28;20360;-92
2023/01/21 02:04:20;;;;;;;36.40;16.85;;;;;;;-2.12;99.14;96464.75;5047932;28;20057;-92
2023/01/21 02:06:48;;;;;;;36.25;16.48;;;;;;;-2.05;99.36;96464.63;5046541;28;20109;-92
2023/01/21 02:09:15;;;;;;;37.58;16.27;;;;;;;-1.98;98.99;96468.00;5047775;28;20056;-93
2023/01/21 02:11:41;;;;;;;37.42;17.67;;;;;;;-2.01;98.90;96473.78;5054525;28;20048;-91
2023/01/21 02:14:08;;;;;;;33.25;16.15;;;;;;;-2.11;99.11;96470.91;5056807;28;20063;-92
2023/01/21 02:16:57;;;;;;;36.20;17.45;;;;;;;-2.22;100.00;96472.53;5041952;28;20041;-93
2023/01/21 02:19:46;;;;;;;36.25;16.27;;;;;;;-2.11;100.00;96471.72;5040115;28;20049;-93
2023/01/21 02:22:21;;;;;;;33.13;15.73;;;;;;;-2.08;100.00;96472.31;5024791;28;20045;-93
2023/01/21 02:25:24;;;;;;;31.50;14.88;;;;;;;-1.95;99.65;96472.84;5026542;28;20041;-94
2023/01/21 02:28:07;;;;;;;32.35;15.77;;;;;;;-1.86;99.01;96475.97;5046421;28;20067;-92
2023/01/21 02:31:08;;;;;;;29.85;14.88;;;;;;;-1.84;98.54;96477.31;5043855;28;20405;-93
2023/01/21 02:33:48;;;;;;;30.50;15.25;;;;;;;-1.87;97.94;96472.47;5002218;28;20048;-92
2023/01/21 02:36:36;;;;;;;29.98;15.88;;;;;;;-1.81;97.79;96481.41;5050876;28;20053;-93
2023/01/21 02:39:11;;;;;;;29.48;14.02;;;;;;;-1.74;97.72;96473.25;5041355;28;20511;-92
2023/01/21 02:41:51;;;;;;;31.50;14.50;;;;;;;-1.86;97.60;96475.97;5033099;28;20052;-92
2023/01/21 02:44:24;;;;;;;29.88;15.20;;;;;;;-1.78;97.66;96480.09;5041143;28;20507;-92
2023/01/21 02:46:59;;;;;;;30.17;14.27;;;;;;;-1.92;97.41;96477.72;5033750;28;20042;-93
2023/01/21 02:49:31;;;;;;;29.00;14.68;;;;;;;-1.89;97.66;96477.22;5015596;28;20041;-92
2023/01/21 02:51:58;;;;;;;29.60;14.25;;;;;;;-1.97;97.50;96477.59;5042174;28;20057;-91
2023/01/21 02:54:57;;;;;;;31.08;15.07;;;;;;;-2.03;97.75;96478.56;5044914;28;20044;-92
2023/01/21 02:57:35;;;;;;;29.70;14.63;;;;;;;-1.95;97.72;96478.16;5040381;28;20504;-92
2023/01/21 03:00:06;;;;;;;32.85;15.00;;;;;;;-2.03;98.23;96478.56;5041553;28;20523;-87
2023/01/21 03:02:52;;;;;;;29.13;14.43;;;;;;;-1.94;98.25;96477.13;5053737;28;20049;-92
2023/01/21 03:05:31;;;;;;;30.00;14.32;;;;;;;-1.93;98.17;96472.59;5027555;28;20064;-92
2023/01/21 03:08:06;;;;;;;30.58;14.43;;;;;;;-2.04;98.28;96471.56;5044772;28;20056;-93
2023/01/21 03:10:40;;;;;;;30.70;13.80;;;;;;;-2.01;98.42;96476.44;5029625;28;20491;-93
2023/01/21 03:13:13;;;;;;;27.80;14.10;;;;;;;-1.93;98.21;96473.44;5044676;28;20045;-94
2023/01/21 03:18:38;;;;;;;28.33;14.25;;;;;;;-2.10;98.40;96480.53;5023247;28;20072;-93
2023/01/21 03:21:10;;;;;;;29.98;14.27;;;;;;;-2.10;98.30;96481.31;5010784;28;20045;-93
2023/01/21 03:23:41;;;;;;;30.92;14.20;;;;;;;-1.92;98.08;96475.03;5035666;28;20137;-93
2023/01/21 03:26:10;;;;;;;32.42;14.75;;;;;;;-1.97;97.96;96477.59;5034376;28;20049;-92
2023/01/21 03:28:44;;;;;;;27.98;14.00;;;;;;;-1.91;97.67;96474.00;5040623;28;20409;-93
2023/01/21 03:31:16;;;;;;;28.40;14.50;;;;;;;-2.03;97.77;96473.22;5042142;28;20040;-93
2023/01/21 03:33:45;;;;;;;30.33;15.13;;;;;;;-2.04;98.08;96471.56;5031468;28;20114;-93
2023/01/21 03:36:20;;;;;;;32.47;15.00;;;;;;;-2.10;98.38;96468.00;5042243;28;20045;-93
2023/01/21 03:38:51;;;;;;;36.88;14.70;;;;;;;-2.02;98.54;96468.69;5048278;28;20049;-94
2023/01/21 03:41:22;;;;;;;30.90;14.43;;;;;;;-1.98;98.32;96469.84;5032803;28;20045;-93
2023/01/21 03:43:49;;;;;;;30.05;14.25;;;;;;;-2.03;97.83;96464.41;5032913;28;20046;-91
2023/01/21 03:46:22;;;;;;;32.38;15.30;;;;;;;-2.06;97.77;96457.66;5034637;28;20050;-93
2023/01/21 03:48:54;;;;;;;31.38;14.50;;;;;;;-2.25;99.25;96453.50;5044411;28;20037;-93
2023/01/21 03:51:27;;;;;;;29.05;13.98;;;;;;;-2.19;99.92;96457.94;5048752;28;20509;-93
2023/01/21 03:53:56;;;;;;;29.77;15.98;;;;;;;-2.30;99.93;96450.75;5039918;28;20052;-93
2023/01/21 03:56:23;;;;;;;30.77;15.52;;;;;;;-2.35;100.00;96448.78;5034765;28;20041;-93
2023/01/21 03:58:50;;;;;;;32.40;15.68;;;;;;;-2.37;100.00;96446.34;5044380;28;20044;-93
2023/01/21 04:01:16;;;;;;;32.20;15.77;;;;;;;-2.20;100.00;96448.28;5042697;28;20049;-94
2023/01/21 04:03:43;;;;;;;32.40;14.88;;;;;;;-2.27;99.95;96455.63;5015882;28;20037;-92
2023/01/21 04:06:14;;;;;;;35.90;15.85;;;;;;;-2.46;100.00;96447.72;5042755;28;20054;-91
2023/01/21 04:08:42;;;;;;;32.80;15.40;;;;;;;-2.37;100.00;96449.00;5051973;28;20048;-92
2023/01/21 04:11:08;;;;;;;33.25;15.65;;;;;;;-2.45;100.00;96448.56;5043170;28;20607;-93
2023/01/21 04:13:35;;;;;;;31.13;15.18;;;;;;;-2.40;100.00;96451.34;5039251;28;20049;-93
2023/01/21 04:16:01;;;;;;;30.83;15.60;;;;;;;-2.36;99.92;96447.97;5032473;28;20041;-94
2023/01/21 04:18:28;;;;;;;31.92;15.50;;;;;;;-2.41;99.82;96450.50;5021821;28;20096;-92
2023/01/21 04:20:55;;;;;;;32.58;14.40;;;;;;;-2.29;99.50;96458.53;5040614;28;20050;-94
2023/01/21 04:23:21;;;;;;;29.45;15.27;;;;;;;-2.35;98.83;96454.09;5034298;28;20045;-94
2023/01/21 04:25:50;;;;;;;32.60;15.05;;;;;;;-2.50;99.08;96457.28;5043362;28;20400;-93
2023/01/21 04:28:17;;;;;;;31.45;14.77;;;;;;;-2.33;98.97;96457.38;5050204;28;20045;-93
2023/01/21 04:30:44;;;;;;;32.08;14.65;;;;;;;-2.30;98.72;96464.88;5046440;28;20081;-93
2023/01/21 04:33:11;;;;;;;30.25;14.50;;;;;;;-2.44;98.31;96464.34;5038865;28;20049;-93
2023/01/21 04:35:37;;;;;;;31.58;15.32;;;;;;;-2.71;98.98;96460.50;5045559;28;20045;-93
2023/01/21 04:38:04;;;;;;;29.77;15.02;;;;;;;-2.80;100.00;96456.56;5024228;28;20460;-93
2023/01/21 04:40:31;;;;;;;32.17;15.00;;;;;;;-2.86;100.00;96454.81;5035897;28;20049;-95
2023/01/21 04:42:59;;;;;;;31.58;16.13;;;;;;;-2.98;100.00;96455.59;5043745;28;20037;-93
2023/01/21 04:45:25;;;;;;;35.00;16.63;;;;;;;-3.01;100.00;96456.06;5039032;28;20053;-93
2023/01/21 04:47:52;;;;;;;34.88;15.75;;;;;;;-3.11;100.00;96453.16;5040215;28;20045;-94
2023/01/21 04:50:19;;;;;;;32.85;16.02;;;;;;;-3.16;100.00;96458.38;5031420;28;20060;-93
2023/01/21 04:52:45;;;;;;;31.30;15.20;;;;;;;-3.06;100.00;96463.94;5046550;28;20037;-93
2023/01/21 04:55:12;;;;;;;36.00;16.17;;;;;;;-3.11;100.00;96458.50;5042471;28;20049;-94
2023/01/21 04:57:38;;;;;;;30.25;15.00;;;;;;;-3.06;100.00;96466.59;5038411;28;20045;-93
2023/01/21 05:00:08;;;;;;;32.17;14.73;;;;;;;-3.08;99.82;96466.03;5039565;28;20049;-95
2023/01/21 05:02:35;;;;;;;30.80;15.35;;;;;;;-3.04;99.46;96467.19;5038187;28;20052;-92
2023/01/21 05:05:02;;;;;;;33.08;15.30;;;;;;;-3.12;99.13;96472.84;5059213;28;20052;-93
2023/01/21 05:07:28;;;;;;;32.13;15.07;;;;;;;-3.11;98.86;96468.34;5068078;28;20034;-93
2023/01/21 05:09:55;;;;;;;30.15;15.57;;;;;;;-3.12;98.56;96472.84;5041229;28;20036;-93
2023/01/21 05:12:22;;;;;;;33.42;15.55;;;;;;;-3.13;98.66;96473.91;5052084;28;20052;-92
2023/01/21 05:14:48;;;;;;;29.42;15.05;;;;;;;-3.02;98.38;96470.44;5068981;28;20041;-93
2023/01/21 05:17:16;;;;;;;30.25;14.88;;;;;;;-3.06;98.25;96474.59;5060641;28;20038;-93
2023/01/21 05:19:43;;;;;;;33.60;15.45;;;;;;;-3.11;97.80;96481.66;5050585;28;20045;-96
2023/01/21 05:22:09;;;;;;;31.08;15.02;;;;;;;-3.22;97.62;96480.59;5056069;28;20051;-91
2023/01/21 05:24:36;;;;;;;31.00;14.85;;;;;;;-3.25;97.78;96484.50;5056334;28;20519;-93
2023/01/21 05:27:02;;;;;;;29.67;14.30;;;;;;;-3.27;97.69;96477.78;5039498;28;20524;-92
2023/01/21 05:29:29;;;;;;;34.17;15.88;;;;;;;-3.35;97.51;96492.22;5050307;28;20679;-92
2023/01/21 05:31:55;;;;;;;35.58;15.63;;;;;;;-3.47;97.89;96486.88;5043582;28;20037;-94
2023/01/21 05:34:23;;;;;;;33.15;15.85;;;;;;;-3.47;98.42;96489.53;5042717;28;20046;-94
2023/01/21 05:36:50;;;;;;;33.97;14.65;;;;;;;-3.60;98.92;96483.56;5035433;28;20050;-96
2023/01/21 05:39:17;;;;;;;32.78;14.60;;;;;;;-3.51;98.53;96493.66;5044901;28;20053;-95
2023/01/21 05:41:43;;;;;;;34.67;15.60;;;;;;;-3.52;98.22;96480.59;5046564;28;20045;-95
2023/01/21 05:44:10;;;;;;;29.95;14.23;;;;;;;-3.61;98.20;96493.41;5044076;28;20049;-95
2023/01/21 05:46:37;;;;;;;31.23;13.52;;;;;;;-3.53;97.73;96490.44;5035065;28;20037;-96
2023/01/21 05:49:03;;;;;;;26.90;12.90;;;;;;;-3.51;97.48;96499.00;5034228;28;20048;-95
2023/01/21 05:51:32;;;;;;;31.02;14.30;;;;;;;-3.48;97.10;96497.75;5022268;28;20045;-95
2023/01/21 05:53:58;;;;;;;26.58;13.95;;;;;;;-3.60;96.61;96488.88;5046542;28;20049;-95
2023/01/21 05:56:25;;;;;;;27.85;13.05;;;;;;;-3.68;96.47;96498.00;5023845;28;20041;-91
2023/01/21 05:58:52;;;;;;;30.83;13.85;;;;;;;-3.65;96.39;96496.72;5047705;28;20060;-92
2023/01/21 06:01:18;;;;;;;29.00;13.43;;;;;;;-3.71;96.33;96495.78;5041127;28;20052;-89
2023/01/21 06:03:45;;;;;;;30.52;13.98;;;;;;;-3.66;96.31;96495.91;5047917;28;20489;-91
2023/01/21 06:06:11;;;;;;;28.80;14.43;;;;;;;-3.68;96.26;96498.00;5045235;28;20057;-85
2023/01/21 06:08:39;;;;;;;29.23;13.45;;;;;;;-3.56;96.48;96490.88;5054975;28;20048;-88
2023/01/21 06:11:06;;;;;;;31.42;15.25;;;;;;;-3.58;96.83;96487.63;5045480;28;20041;-92
2023/01/21 06:13:32;;;;;;;31.42;15.13;;;;;;;-3.61;97.95;96498.72;5039486;28;20048;-90
2023/01/21 06:15:59;;;;;;;36.22;15.75;;;;;;;-3.48;98.82;96503.88;5037704;28;20048;-89
2023/01/21 06:18:26;;;;;;;37.30;15.45;;;;;;;-3.49;98.55;96502.25;5038362;28;20047;-93
2023/01/21 06:20:52;;;;;;;36.92;16.02;;;;;;;-3.46;98.60;96501.78;5029327;28;20045;-91
2023/01/21 06:23:19;;;;;;;34.97;15.32;;;;;;;-3.50;98.32;96500.66;5042107;28;20056;-86
2023/01/21 06:25:47;;;;;;;34.65;15.02;;;;;;;-3.60;98.28;96497.72;5032207;28;20053;-86
2023/01/21 06:28:14;;;;;;;31.17;14.63;;;;;;;-3.54;98.78;96503.97;5037492;28;20155;-80
2023/01/21 06:30:40;;;;;;;33.20;15.07;;;;;;;-3.60;98.40;96505.69;5049522;28;20045;-84
2023/01/21 06:33:07;;;;;;;36.25;15.73;;;;;;;-3.60;98.23;96511.00;5040202;28;20037;-86
2023/01/21 06:35:34;;;;;;;36.67;15.40;;;;;;;-3.65;98.01;96508.22;5044666;28;20060;-86
2023/01/21 06:38:01;;;;;;;29.45;13.98;;;;;;;-3.59;98.10;96504.66;5028857;28;20128;-85
2023/01/21 06:40:27;;;;;;;34.60;15.50;;;;;;;-3.67;97.70;96504.94;5029303;28;20045;-85
2023/01/21 06:42:55;;;;;;;31.27;15.13;;;;;;;-3.66;97.67;96511.88;5038019;28;20053;-84
2023/01/21 06:45:22;;;;;;;28.02;15.07;;;;;;;-3.55;97.13;96502.31;5044884;28;20056;-84
2023/01/21 06:47:48;;;;;;;30.65;14.30;;;;;;;-3.54;97.20;96507.44;5036473;28;20053;-84
2023/01/21 06:50:17;;;;;;;29.65;14.23;;;;;;;-3.45;96.69;96519.38;5035290;28;20064;-78
2023/01/21 06:52:46;;;;;;;27.30;13.73;;;;;;;-3.39;96.48;96511.53;5027715;28;20057;-80
2023/01/21 06:55:13;;;;;;;35.67;15.07;;;;;;;-3.35;95.92;96512.72;5031728;28;20053;-82
2023/01/21 06:57:41;;;;;;;37.65;15.57;;;;;;;-3.38;96.06;96514.00;5049807;28;20048;-82
2023/01/21 07:00:11;;;;;;;28.45;13.85;;;;;;;-3.35;96.17;96512.72;5033900;28;20045;-84
2023/01/21 07:02:38;;;;;;;31.48;15.35;;;;;;;-3.32;95.98;96510.44;5037178;28;20045;-87
2023/01/21 07:05:05;;;;;;;29.60;14.27;;;;;;;-3.31;95.88;96514.72;5030368;28;20041;-84
2023/01/21 07:07:32;;;;;;;29.50;15.02;;;;;;;-3.26;95.72;96514.03;5035135;28;20489;-80
2023/01/21 07:09:58;;;;;;;32.85;15.65;;;;;;;-3.28;95.61;96518.78;5034107;28;20051;-80
2023/01/21 07:12:25;;;;;;;31.90;15.52;;;;;;;-3.31;95.61;96521.88;5029692;28;20046;-80
2023/01/21 07:14:51;;;;;;;33.15;14.45;;;;;;;-3.19;95.62;96528.06;5046012;28;20044;-80
2023/01/21 07:17:20;;;;;;;28.13;14.07;;;;;;;-3.18;95.23;96529.69;5030507;28;20056;-79
2023/01/21 07:19:46;;;;;;;35.03;14.80;;;;;;;-3.20;95.18;96529.09;5030748;28;20037;-80
2023/01/21 07:22:13;;;;;;;36.88;14.15;;;;;;;-3.32;95.51;96536.25;5038409;28;20053;-79
2023/01/21 07:24:39;;;;;;;32.10;15.38;;;;;;;-3.37;96.56;96536.09;5036248;28;20068;-80
2023/01/21 07:27:06;;;;;;;29.88;15.25;;;;;;;-3.25;96.64;96537.75;5035495;28;20044;-79
2023/01/21 07:29:32;;;;;;;31.13;14.68;;;;;;;-3.10;96.43;96541.88;5038250;28;20046;-80
2023/01/21 07:31:59;;;;;;;33.40;13.85;;;;;;;-3.02;96.07;96545.03;5039206;28;20069;-79
2023/01/21 07:34:27;;;;;;;33.40;15.00;;;;;;;-3.06;96.10;96541.19;5042315;28;20048;-80
2023/01/21 07:36:53;;;;;;;32.03;14.57;;;;;;;-3.02;95.61;96545.03;5051438;28;20052;-81
2023/01/21 07:39:20;;;;;;;31.83;15.00;;;;;;;-3.02;96.08;96542.38;5031341;28;20038;-83
2023/01/21 07:41:46;;;;;;;29.63;14.18;;;;;;;-2.98;96.11;96546.19;5046261;28;20037;-80
2023/01/21 07:44:13;;;;;;;30.17;14.57;;;;;;;-3.00;95.89;96552.78;5040615;28;20049;-81
2023/01/21 07:46:39;;;;;;;35.63;14.98;;;;;;;-3.09;96.67;96540.84;5041520;28;20041;-82
2023/01/21 07:49:06;;;;;;;34.05;14.57;;;;;;;-3.02;97.16;96546.91;5048807;28;20052;-80
2023/01/21 07:51:34;;;;;;;30.67;14.27;;;;;;;-3.06;97.47;96538.53;5037492;28;20045;-80
2023/01/21 07:54:00;;;;;;;36.05;15.38;;;;;;;-3.05;97.74;96548.16;5035796;28;20061;-83
2023/01/21 07:56:27;;;;;;;32.95;14.77;;;;;;;-2.93;97.58;96543.66;5023445;28;20045;-82
2023/01/21 07:58:53;;;;;;;32.15;14.90;;;;;;;-2.97;97.48;96547.03;5043759;28;20052;-80
2023/01/21 08:01:20;;;;;;;34.00;14.73;;;;;;;-2.88;96.78;96546.44;5044539;28;20059;-80
2023/01/21 08:03:46;;;;;;;35.35;15.45;;;;;;;-2.97;97.31;96547.84;5039188;28;20041;-82
2023/01/21 08:06:14;;;;;;;29.88;14.02;;;;;;;-2.86;97.89;96546.25;5040921;28;20045;-87
2023/01/21 08:08:42;;;;;;;35.50;14.93;;;;;;;-2.86;97.83;96537.44;5041923;28;20107;-83
2023/01/21 08:11:08;;;;;;;33.00;15.55;;;;;;;-2.74;97.80;96544.41;5042182;28;20145;-82
2023/01/21 08:13:35;;;;;;;33.28;13.85;;;;;;;-2.68;97.56;96540.00;5045758;28;20044;-83
2023/01/21 08:16:01;;;;;;;28.48;13.15;;;;;;;-2.56;96.99;96540.81;5043888;28;20045;-86
2023/01/21 08:18:28;;;;;;;33.65;14.43;;;;;;;-2.54;96.32;96541.44;5032961;28;20037;-81
2023/01/21 08:20:55;;;;;;;32.40;13.77;;;;;;;-2.59;96.49;96541.31;5049562;28;20120;-82
2023/01/21 08:23:22;;;;;;;33.13;14.85;;;;;;;-2.53;96.82;96547.56;5043580;28;20040;-80
2023/01/21 08:25:50;;;;;;;31.27;14.45;;;;;;;-2.54;96.42;96545.94;5046606;28;20459;-88
2023/01/21 08:28:17;;;;;;;29.77;14.10;;;;;;;-2.55;97.33;96545.13;5041671;28;20068;-80
2023/01/21 08:30:43;;;;;;;35.15;14.00;;;;;;;-2.44;96.79;96552.34;5046192;28;20037;-80
2023/01/21 08:33:10;;;;;;;34.33;13.75;;;;;;;-2.49;95.95;96543.41;5034704;28;20046;-82
2023/01/21 08:35:36;;;;;;;28.88;13.75;;;;;;;-2.44;96.20;96541.66;5041093;28;20049;-82
2023/01/21 08:38:03;;;;;;;30.67;14.13;;;;;;;-2.46;97.11;96546.41;5044070;28;20468;-87
2023/01/21 08:40:29;;;;;;;28.63;13.95;;;;;;;-2.32;96.82;96548.84;5044943;28;20041;-83
2023/01/21 08:43:02;;;;;;;32.67;14.63;;;;;;;-2.29;96.31;96548.41;5046117;28;20068;-81
2023/01/21 08:45:30;;;;;;;31.52;14.25;;;;;;;-2.23;96.60;96553.63;5035690;28;20040;-80
2023/01/21 08:47:57;;;;;;;32.67;14.30;;;;;;;-2.34;96.39;96548.28;5034111;28;20413;-82
2023/01/21 08:50:23;;;;;;;32.08;14.05;;;;;;;-2.45;96.65;96549.91;5051840;28;20045;-84
2023/01/21 08:52:51;;;;;;;32.60;14.73;;;;;;;-2.43;96.25;96548.63;5045071;28;20041;-81
2023/01/21 08:55:19;;;;;;;31.38;14.85;;;;;;;-2.52;96.97;96550.00;5049908;28;20068;-80
2023/01/21 08:57:47;;;;;;;37.25;14.77;;;;;;;-2.38;98.01;96551.41;5043676;28;20048;-81
2023/01/21 09:00:16;;;;;;;31.42;15.15;;;;;;;-2.44;97.93;96557.66;5039983;28;20132;-86
2023/01/21 09:02:42;;;;;;;41.63;16.00;;;;;;;-2.42;96.95;96555.56;5050906;28;20505;-79
2023/01/21 09:05:09;;;;;;;32.30;14.25;;;;;;;-2.31;96.82;96563.81;5047188;28;20069;-81
2023/01/21 09:07:36;;;;;;;37.47;15.18;;;;;;;-2.16;96.47;96564.16;5043214;28;20040;-85
2023/01/21 09:10:02;;;;;;;34.33;15.77;;;;;;;-2.25;96.20;96562.88;5050215;28;20029;-79
2023/01/21 09:12:29;;;;;;;35.97;15.30;;;;;;;-2.19;96.79;96562.78;5045229;28;20568;-82
2023/01/21 09:14:55;;;;;;;31.92;14.80;;;;;;;-2.12;96.69;96565.34;5046505;28;20041;-83
2023/01/21 09:17:23;;;;;;;34.47;15.55;;;;;;;-2.08;96.19;96561.16;5041727;28;20053;-80
2023/01/21 09:19:50;;;;;;;29.23;15.07;;;;;;;-2.03;95.22;96558.59;5048575;28;20045;-80
2023/01/21 09:22:17;;;;;;;31.98;14.43;;;;;;;-1.87;94.09;96549.88;5033444;28;20040;-81
2023/01/21 09:24:44;;;;;;;35.13;15.15;;;;;;;-2.01;93.99;96556.50;5032952;28;20045;-80
2023/01/21 09:27:10;;;;;;;38.22;15.32;;;;;;;-1.85;94.04;96550.44;5034216;28;20513;-83
2023/01/21 09:29:37;;;;;;;37.50;15.18;;;;;;;-1.83;93.70;96552.88;5041280;28;20045;-82
2023/01/21 09:32:05;;;;;;;30.13;14.73;;;;;;;-1.82;93.76;96553.72;5033052;28;20056;-82
2023/01/21 09:34:33;;;;;;;28.20;14.77;;;;;;;-1.74;93.02;96564.81;5045089;28;20052;-81
2023/01/21 09:37:00;;;;;;;30.88;15.00;;;;;;;-1.66;92.75;96558.31;5044293;28;20044;-84
2023/01/21 09:39:26;;;;;;;36.60;14.18;;;;;;;-1.65;92.30;96554.59;5044759;28;20052;-81
2023/01/21 09:41:56;;;;;;;33.15;13.60;;;;;;;-1.59;91.95;96559.00;5037262;28;20046;-82
2023/01/21 09:44:27;;;;;;;32.33;14.65;;;;;;;-1.62;92.14;96556.78;5032439;28;20444;-80
2023/01/21 09:46:58;;;;;;;28.17;14.00;;;;;;;-1.49;92.13;96567.22;5040258;28;20088;-80
2023/01/21 09:49:28;;;;;;;32.03;14.48;;;;;;;-1.48;92.13;96566.16;5035746;28;20117;-82
2023/01/21 09:52:04;;;;;;;30.83;14.20;;;;;;;-1.46;92.24;96572.09;5044707;28;20096;-79
2023/01/21 09:54:33;;;;;;;32.92;15.43;;;;;;;-1.43;91.65;96574.28;5040455;28;20044;-79
2023/01/21 09:57:33;;;;;;;32.67;14.68;;;;;;;-1.49;92.08;96569.88;5033752;28;20048;-79
2023/01/21 10:00:20;;;;;;;28.05;13.25;;;;;;;-1.40;91.90;96567.66;5035293;28;20042;-84
2023/01/21 10:02:54;;;;;;;30.15;12.82;;;;;;;-1.41;90.50;96577.53;5047179;28;20048;-82
2023/01/21 10:06:13;;;;;;;31.42;14.25;;;;;;;-1.44;90.79;96570.00;5040127;28;20574;-81
2023/01/21 10:08:56;;;;;;;28.00;13.15;;;;;;;-1.30;91.03;96567.88;5031796;28;20048;-81
2023/01/21 10:11:39;;;;;;;30.23;13.25;;;;;;;-1.25;90.72;96570.66;5051249;28;20043;-79
2023/01/21 10:14:22;;;;;;;30.00;13.90;;;;;;;-1.18;90.66;96576.66;5042531;28;20041;-81
2023/01/21 10:17:01;;;;;;;30.75;14.48;;;;;;;-1.10;90.54;96572.78;5047556;28;20048;-81
2023/01/21 10:19:33;;;;;;;27.45;12.93;;;;;;;-1.04;90.08;96571.84;5035657;28;20044;-80
2023/01/21 10:22:03;;;;;;;31.60;13.77;;;;;;;-0.99;89.78;96571.94;5043989;28;20515;-79
2023/01/21 10:24:38;;;;;;;32.05;13.75;;;;;;;-0.99;89.72;96569.25;5036202;28;20049;-80
2023/01/21 10:27:05;;;;;;;30.85;14.05;;;;;;;-1.04;89.53;96574.50;5044375;28;20055;-79
2023/01/21 10:29:40;;;;;;;30.40;14.43;;;;;;;-1.05;89.79;96568.34;5043356;28;20045;-81
2023/01/21 10:32:11;;;;;;;27.13;13.52;;;;;;;-1.07;89.88;96565.09;5041898;28;20038;-80
2023/01/21 10:34:44;;;;;;;29.38;14.60;;;;;;;-0.95;89.90;96570.38;5032008;28;20049;-81
2023/01/21 10:37:19;;;;;;;21.08;10.35;;;;;;;-0.88;89.58;96571.06;5032779;28;20049;-81
2023/01/21 10:39:58;;;;;;;30.70;13.38;;;;;;;-0.97;89.59;96561.81;5053027;28;20048;-79
2023/01/21 10:42:59;;;;;;;31.23;14.25;;;;;;;-1.08;89.25;96563.47;5043060;28;20132;-81
2023/01/21 10:45:37;;;;;;;37.33;14.18;;;;;;;-1.13;89.22;96562.56;5043066;28;20055;-81
2023/01/21 10:48:09;;;;;;;30.92;13.38;;;;;;;-1.18;89.64;96557.13;5041739;28;20507;-80
2023/01/21 10:50:45;;;;;;;33.30;14.18;;;;;;;-1.16;89.50;96563.84;5039404;28;20049;-80
2023/01/21 10:53:21;;;;;;;33.50;12.82;;;;;;;-1.13;89.92;96566.06;5039547;28;20163;-80
2023/01/21 10:56:04;;;;;;;30.98;14.70;;;;;;;-0.99;89.55;96563.09;5031256;28;20049;-82
2023/01/21 10:58:35;;;;;;;28.58;13.32;;;;;;;-0.94;89.72;96561.34;5032335;28;20048;-81
2023/01/21 11:01:05;;;;;;;40.50;14.82;;;;;;;-0.88;89.60;96568.41;5039029;28;20049;-80
2023/01/21 11:03:40;;;;;;;30.70;13.80;;;;;;;-0.80;89.64;96556.47;5039502;28;20041;-81
2023/01/21 11:06:08;;;;;;;33.25;12.60;;;;;;;-0.74;89.84;96554.72;5030653;28;20057;-81
2023/01/21 11:08:35;;;;;;;34.22;15.32;;;;;;;-0.71;89.75;96559.59;5035803;28;20127;-79
2023/01/21 11:11:05;;;;;;;29.80;15.05;;;;;;;-0.69;89.51;96552.94;5034345;28;20545;-80
2023/01/21 11:13:31;;;;;;;32.55;13.77;;;;;;;-0.70;89.35;96547.84;5038254;28;20045;-84
2023/01/21 11:15:59;;;;;;;27.25;12.55;;;;;;;-0.67;89.27;96550.03;5031329;28;20038;-83
2023/01/21 11:18:29;;;;;;;26.40;13.07;;;;;;;-0.59;89.19;96552.28;5038177;28;20505;-81
2023/01/21 11:20:59;;;;;;;31.10;14.20;;;;;;;-0.72;89.17;96542.75;5039070;28;20052;-80
2023/01/21 11:23:28;;;;;;;26.95;12.70;;;;;;;-0.65;89.29;96543.38;5034238;28;20048;-79
2023/01/21 11:26:01;;;;;;;29.02;12.13;;;;;;;-0.82;89.20;96545.22;5035494;28;20044;-80
2023/01/21 11:28:30;;;;;;;26.58;12.10;;;;;;;-0.88;89.71;96549.69;5039842;28;20457;-83
2023/01/21 11:31:07;;;;;;;29.10;12.70;;;;;;;-0.86;90.48;96544.91;5038981;28;20044;-80